^^
Your Local Weather - Clay, NY Station Historical Data
Daily Summary for December 4, 2017 Units:  English    Metric   Both
« Previous Day
Next Day »
Daily Weekly Monthly Yearly Custom
  High: Low: Average:
Temperature: 50.8 °F 26.0 °F 39 °F
Dew Point: 37.4 °F 24.3 °F 30.8 °F
Humidity: 94% 51% 74%
Wind Speed: 10.0mph 0.0mph 2.2mph
Wind Gust: 17.0mph - -
Wind- - SE
Pressure: 30.36 in 30.06 in -
Precipitation: 0.00 in    
Historical Graphs
 
 
Tabular Data for December 4, 2017
Time Temperature Dew Point Pressure Wind Wind Speed Wind Gust Humidity Rainfall Rate (Hourly) solar
00:04 28.9 °F 26.6 °F 30.25 in Calm     91% 0.00 in 0 W/m2
00:10 28.9 °F 26.6 °F 30.25 in Calm     91% 0.00 in 0 W/m2
00:16 28.9 °F 26.6 °F 30.26 in Calm     91% 0.00 in 0 W/m2
00:22 28.9 °F 26.6 °F 30.26 in Calm     91% 0.00 in 0 W/m2
00:28 29.5 °F 27.5 °F 30.25 in Calm     92% 0.00 in 0 W/m2
00:34 29.8 °F 27.8 °F 30.25 in Calm     92% 0.00 in 0 W/m2
00:40 29.9 °F 27.9 °F 30.26 in Calm     92% 0.00 in 0 W/m2
00:46 30.1 °F 28.1 °F 30.26 in Calm     92% 0.00 in 0 W/m2
00:52 30.2 °F 28.2 °F 30.26 in Calm     92% 0.00 in 0 W/m2
00:58 30.2 °F 28.2 °F 30.27 in Calm     92% 0.00 in 0 W/m2
01:04 30.3 °F 28.3 °F 30.27 in Calm     92% 0.00 in 0 W/m2
01:10 30.5 °F 28.5 °F 30.27 in Calm     92% 0.00 in 0 W/m2
01:16 30.5 °F 28.5 °F 30.27 in Calm     92% 0.00 in 0 W/m2
01:22 30.5 °F 28.5 °F 30.27 in Calm     92% 0.00 in 0 W/m2
01:28 30.4 °F 28.4 °F 30.27 in Calm     92% 0.00 in 0 W/m2
01:34 30.4 °F 28.4 °F 30.27 in Calm     92% 0.00 in 0 W/m2
01:40 30.3 °F 28.3 °F 30.27 in Calm     92% 0.00 in 0 W/m2
01:46 30.3 °F 28.3 °F 30.27 in Calm     92% 0.00 in 0 W/m2
01:52 30.3 °F 28.3 °F 30.27 in Calm     92% 0.00 in 0 W/m2
01:58 30.3 °F 28.3 °F 30.27 in Calm     92% 0.00 in 0 W/m2
02:04 30.4 °F 28.4 °F 30.28 in Calm     92% 0.00 in 0 W/m2
02:10 30.3 °F 28.3 °F 30.28 in Calm     92% 0.00 in 0 W/m2
02:16 30.1 °F 28.1 °F 30.28 in Calm     92% 0.00 in 0 W/m2
02:22 29.9 °F 27.9 °F 30.29 in Calm     92% 0.00 in 0 W/m2
02:28 29.5 °F 27.5 °F 30.29 in Calm     92% 0.00 in 0 W/m2
02:34 29.4 °F 27.4 °F 30.29 in Calm     92% 0.00 in 0 W/m2
02:40 29.3 °F 27.3 °F 30.29 in Calm     92% 0.00 in 0 W/m2
02:46 29.2 °F 27.2 °F 30.29 in Calm     92% 0.00 in 0 W/m2
02:52 29.2 °F 27.2 °F 30.29 in Calm     92% 0.00 in 0 W/m2
02:58 29.3 °F 27.3 °F 30.30 in Calm     92% 0.00 in 0 W/m2
03:04 29.3 °F 27.3 °F 30.30 in Calm     92% 0.00 in 0 W/m2
03:10 29.2 °F 27.2 °F 30.30 in Calm     92% 0.00 in 0 W/m2
03:16 29.2 °F 27.2 °F 30.30 in Calm     92% 0.00 in 0 W/m2
03:22 29.2 °F 27.2 °F 30.29 in Calm     92% 0.00 in 0 W/m2
03:28 29.0 °F 27.0 °F 30.29 in Calm     92% 0.00 in 0 W/m2
03:34 28.8 °F 26.8 °F 30.29 in Calm     92% 0.00 in 0 W/m2
03:40 28.6 °F 26.6 °F 30.29 in Calm     92% 0.00 in 0 W/m2
03:46 28.4 °F 26.4 °F 30.29 in Calm     92% 0.00 in 0 W/m2
03:52 28.4 °F 26.4 °F 30.29 in Calm   1.0 mph 92% 0.00 in 0 W/m2
03:58 28.2 °F 26.2 °F 30.30 in Calm   1.0 mph 92% 0.00 in 0 W/m2
04:04 28.1 °F 26.1 °F 30.30 in Calm     92% 0.00 in 0 W/m2
04:10 27.9 °F 25.9 °F 30.30 in Calm     92% 0.00 in 0 W/m2
04:16 27.8 °F 25.8 °F 30.30 in Calm     92% 0.00 in 0 W/m2
04:22 27.6 °F 25.6 °F 30.30 in Calm     92% 0.00 in 0 W/m2
04:30 27.4 °F 25.4 °F 30.30 in Calm     92% 0.00 in 0 W/m2
04:36 27.2 °F 25.2 °F 30.30 in Calm     92% 0.00 in 0 W/m2
04:42 27.1 °F 25.1 °F 30.31 in Calm     92% 0.00 in 0 W/m2
04:48 26.9 °F 24.9 °F 30.31 in Calm     92% 0.00 in 0 W/m2
04:54 26.8 °F 24.8 °F 30.31 in Calm     92% 0.00 in 0 W/m2
05:00 26.9 °F 24.9 °F 30.31 in Calm     92% 0.00 in 0 W/m2
05:06 26.7 °F 24.7 °F 30.30 in Calm     92% 0.00 in 0 W/m2
05:12 26.6 °F 24.6 °F 30.30 in Calm     92% 0.00 in 0 W/m2
05:18 26.7 °F 24.9 °F 30.30 in Calm     93% 0.00 in 0 W/m2
05:24 26.7 °F 24.9 °F 30.30 in Calm     93% 0.00 in 0 W/m2
05:30 26.8 °F 25.0 °F 30.31 in Calm     93% 0.00 in 0 W/m2
05:36 26.7 °F 24.9 °F 30.31 in Calm     93% 0.00 in 0 W/m2
05:42 26.7 °F 24.9 °F 30.32 in Calm     93% 0.00 in 0 W/m2
05:48 26.8 °F 25.0 °F 30.32 in Calm     93% 0.00 in 0 W/m2
05:54 26.7 °F 24.9 °F 30.32 in Calm     93% 0.00 in 0 W/m2
06:00 26.8 °F 25.0 °F 30.32 in Calm     93% 0.00 in 0 W/m2
06:06 26.8 °F 25.0 °F 30.32 in Calm     93% 0.00 in 0 W/m2
06:12 26.8 °F 25.0 °F 30.32 in Calm     93% 0.00 in 0 W/m2
06:18 27.0 °F 25.2 °F 30.32 in Calm   1.0 mph 93% 0.00 in 0 W/m2
06:24 27.2 °F 25.4 °F 30.32 in Calm     93% 0.00 in 0 W/m2
06:30 27.0 °F 25.2 °F 30.32 in Calm     93% 0.00 in 0 W/m2
06:36 26.9 °F 25.1 °F 30.32 in Calm     93% 0.00 in 0 W/m2
06:42 26.8 °F 25.0 °F 30.33 in Calm     93% 0.00 in 0 W/m2
06:48 26.8 °F 25.0 °F 30.33 in Calm     93% 0.00 in 0 W/m2
06:54 26.7 °F 24.9 °F 30.33 in Calm     93% 0.00 in 0 W/m2
07:00 26.5 °F 24.8 °F 30.33 in Calm     93% 0.00 in 0 W/m2
07:06 26.4 °F 24.7 °F 30.34 in Calm     93% 0.00 in 0 W/m2
07:12 26.3 °F 24.6 °F 30.34 in Calm     93% 0.00 in 0 W/m2
07:18 26.1 °F 24.4 °F 30.34 in Calm     93% 0.00 in 0 W/m2
07:26 26.0 °F 24.3 °F 30.34 in Calm     93% 0.00 in 5 W/m2
07:32 26.0 °F 24.3 °F 30.34 in Calm     93% 0.00 in 9 W/m2
07:38 26.2 °F 24.5 °F 30.34 in Calm     93% 0.00 in 14 W/m2
07:44 26.2 °F 24.5 °F 30.34 in Calm     93% 0.00 in 19 W/m2
07:50 26.2 °F 24.5 °F 30.35 in Calm     93% 0.00 in 25 W/m2
07:56 26.4 °F 24.7 °F 30.35 in Calm     93% 0.00 in 30 W/m2
08:02 26.5 °F 24.8 °F 30.35 in Calm     93% 0.00 in 35 W/m2
08:08 26.9 °F 25.1 °F 30.35 in Calm     93% 0.00 in 40 W/m2
08:14 27.2 °F 25.4 °F 30.35 in Calm     93% 0.00 in 67 W/m2
08:20 27.4 °F 25.6 °F 30.35 in Calm     93% 0.00 in 83 W/m2
08:26 28.1 °F 26.3 °F 30.35 in Calm     93% 0.00 in 102 W/m2
08:32 29.2 °F 27.4 °F 30.36 in Calm     93% 0.00 in 121 W/m2
08:38 30.2 °F 28.4 °F 30.36 in Calm     93% 0.00 in 137 W/m2
08:44 30.8 °F 29.3 °F 30.36 in Calm   1.0 mph 94% 0.00 in 158 W/m2
08:50 31.3 °F 29.8 °F 30.36 in SSW 1.0 mph 1.0 mph 94% 0.00 in 171 W/m2
08:56 31.9 °F 30.4 °F 30.36 in SSW 1.0 mph 1.0 mph 94% 0.00 in 190 W/m2
09:03 32.3 °F 30.5 °F 30.36 in East 1.0 mph 2.0 mph 93% 0.00 in 202 W/m2
09:08 32.6 °F 30.8 °F 30.36 in East 1.0 mph 2.0 mph 93% 0.00 in 192 W/m2
09:14 33.2 °F 31.4 °F 30.36 in ESE 1.0 mph 2.0 mph 93% 0.00 in 218 W/m2
09:20 33.4 °F 31.6 °F 30.36 in East 1.0 mph 1.0 mph 93% 0.00 in 237 W/m2
09:26 34.1 °F 32.0 °F 30.36 in East 1.0 mph 2.0 mph 92% 0.00 in 241 W/m2
09:32 34.1 °F 31.5 °F 30.36 in NE 2.0 mph 3.0 mph 90% 0.00 in 251 W/m2
09:38 34.4 °F 31.5 °F 30.36 in ENE 2.0 mph 3.0 mph 89% 0.00 in 264 W/m2
09:44 35.2 °F 32.3 °F 30.35 in East 2.0 mph 2.0 mph 89% 0.00 in 271 W/m2
09:50 35.5 °F 32.0 °F 30.35 in ENE 2.0 mph 2.0 mph 87% 0.00 in 287 W/m2
09:56 36.2 °F 32.4 °F 30.35 in SE 2.0 mph 4.0 mph 86% 0.00 in 276 W/m2
10:02 36.5 °F 32.7 °F 30.35 in East 2.0 mph 2.0 mph 86% 0.00 in 292 W/m2
10:08 36.5 °F 31.8 °F 30.35 in East 1.0 mph 2.0 mph 83% 0.00 in 290 W/m2
10:14 37.0 °F 32.6 °F 30.35 in East 1.0 mph 2.0 mph 84% 0.00 in 353 W/m2
10:20 37.5 °F 32.5 °F 30.35 in East 1.0 mph 1.0 mph 82% 0.00 in 334 W/m2
10:26 38.4 °F 33.1 °F 30.35 in East 1.0 mph 3.0 mph 81% 0.00 in 350 W/m2
10:32 38.5 °F 32.9 °F 30.35 in ENE 2.0 mph 4.0 mph 80% 0.00 in 302 W/m2
10:38 38.6 °F 32.6 °F 30.35 in ENE 2.0 mph 4.0 mph 79% 0.00 in 265 W/m2
10:44 38.9 °F 32.9 °F 30.34 in East 2.0 mph 2.0 mph 79% 0.00 in 264 W/m2
10:50 39.9 °F 33.9 °F 30.33 in East 1.0 mph 1.0 mph 79% 0.00 in 323 W/m2
10:56 40.8 °F 34.5 °F 30.33 in SE 1.0 mph 2.0 mph 78% 0.00 in 367 W/m2
11:02 41.4 °F 34.7 °F 30.33 in ESE 2.0 mph 3.0 mph 77% 0.00 in 385 W/m2
11:08 42.0 °F 34.6 °F 30.33 in ESE 1.0 mph 3.0 mph 75% 0.00 in 396 W/m2
11:14 41.7 °F 34.0 °F 30.32 in SE 2.0 mph 2.0 mph 74% 0.00 in 427 W/m2
11:20 42.2 °F 34.5 °F 30.32 in East 2.0 mph 2.0 mph 74% 0.00 in 404 W/m2
11:26 43.2 °F 35.1 °F 30.31 in East 2.0 mph 2.0 mph 73% 0.00 in 422 W/m2
11:32 43.1 °F 34.7 °F 30.30 in ENE 2.0 mph 4.0 mph 72% 0.00 in 424 W/m2
11:38 43.9 °F 35.1 °F 30.30 in NE 3.0 mph 4.0 mph 71% 0.00 in 401 W/m2
11:44 44.4 °F 35.2 °F 30.29 in NE 3.0 mph 7.0 mph 70% 0.00 in 360 W/m2
11:50 44.9 °F 35.7 °F 30.29 in ESE 3.0 mph 3.0 mph 70% 0.00 in 367 W/m2
11:56 45.2 °F 35.3 °F 30.29 in East 2.0 mph 5.0 mph 68% 0.00 in 387 W/m2
12:02 46.1 °F 35.7 °F 30.28 in ENE 3.0 mph 3.0 mph 67% 0.00 in 392 W/m2
12:08 46.5 °F 35.4 °F 30.28 in ENE 3.0 mph 5.0 mph 65% 0.00 in 441 W/m2
12:16 46.4 °F 35.3 °F 30.27 in ENE 4.0 mph 4.0 mph 65% 0.00 in 360 W/m2
12:22 46.7 °F 35.6 °F 30.27 in East 4.0 mph 4.0 mph 65% 0.00 in 343 W/m2
12:28 46.7 °F 35.6 °F 30.27 in SE 3.0 mph 4.0 mph 65% 0.00 in 315 W/m2
12:40 46.9 °F 35.7 °F 30.26 in East 2.0 mph 3.0 mph 65% 0.00 in 162 W/m2
12:46 46.6 °F 36.2 °F 30.26 in ENE 2.0 mph 3.0 mph 67% 0.00 in 149 W/m2
12:52 46.5 °F 36.1 °F 30.26 in ENE 2.0 mph 2.0 mph 67% 0.00 in 148 W/m2
12:58 46.5 °F 36.1 °F 30.26 in ENE 2.0 mph 2.0 mph 67% 0.00 in 162 W/m2
13:04 46.9 °F 37.3 °F 30.26 in ENE 1.0 mph 1.0 mph 69% 0.00 in 195 W/m2
13:10 46.8 °F 36.4 °F 30.25 in NE 1.0 mph 4.0 mph 67% 0.00 in 169 W/m2
13:16 46.3 °F 36.3 °F 30.25 in ENE 2.0 mph 6.0 mph 68% 0.00 in 185 W/m2
13:22 46.2 °F 36.2 °F 30.25 in ENE 3.0 mph 5.0 mph 68% 0.00 in 260 W/m2
13:28 46.4 °F 36.4 °F 30.24 in ENE 3.0 mph 5.0 mph 68% 0.00 in 234 W/m2
13:34 46.3 °F 36.3 °F 30.24 in ENE 3.0 mph 5.0 mph 68% 0.00 in 167 W/m2
13:40 46.7 °F 37.4 °F 30.24 in ENE 2.0 mph 2.0 mph 70% 0.00 in 274 W/m2
13:46 48.1 °F 37.3 °F 30.24 in ENE 1.0 mph 2.0 mph 66% 0.00 in 172 W/m2
13:52 48.9 °F 35.6 °F 30.24 in SSW 2.0 mph 6.0 mph 60% 0.00 in 297 W/m2
13:58 50.2 °F 33.2 °F 30.24 in SSE 4.0 mph 6.0 mph 52% 0.00 in 302 W/m2
14:04 50.7 °F 33.2 °F 30.23 in South 6.0 mph 7.0 mph 51% 0.00 in 283 W/m2
14:10 50.8 °F 33.8 °F 30.23 in SSE 6.0 mph 6.0 mph 52% 0.00 in 220 W/m2
14:16 50.7 °F 33.2 °F 30.22 in South 5.0 mph 6.0 mph 51% 0.00 in 179 W/m2
14:22 50.3 °F 32.8 °F 30.23 in SSE 6.0 mph 10.0 mph 51% 0.00 in 135 W/m2
14:28 50.1 °F 32.7 °F 30.22 in South 7.0 mph 10.0 mph 51% 0.00 in 113 W/m2
14:34 49.9 °F 33.0 °F 30.22 in SW 6.0 mph 8.0 mph 52% 0.00 in 84 W/m2
14:40 49.5 °F 33.1 °F 30.22 in South 4.0 mph 5.0 mph 53% 0.00 in 81 W/m2
14:42 49.4 °F 33.0 °F 30.22 in South 4.0 mph 5.0 mph 53% 0.00 in 65 W/m2
14:48 49.4 °F 33.0 °F 30.22 in SSE 5.0 mph 8.0 mph 53% 0.00 in 65 W/m2
14:54 49.2 °F 32.8 °F 30.21 in SE 5.0 mph 7.0 mph 53% 0.00 in 67 W/m2
15:00 49.1 °F 33.2 °F 30.22 in SSE 4.0 mph 5.0 mph 54% 0.00 in 63 W/m2
15:06 48.9 °F 33.0 °F 30.22 in SSE 2.0 mph 5.0 mph 54% 0.00 in 63 W/m2
15:12 48.6 °F 33.1 °F 30.21 in South 2.0 mph 2.0 mph 55% 0.00 in 56 W/m2
15:18 48.3 °F 33.3 °F 30.21 in SE 2.0 mph 3.0 mph 56% 0.00 in 49 W/m2
15:24 48.3 °F 33.3 °F 30.21 in SSE 3.0 mph 6.0 mph 56% 0.00 in 51 W/m2
15:30 48.5 °F 33.5 °F 30.22 in South 4.0 mph 4.0 mph 56% 0.00 in 35 W/m2
15:36 48.3 °F 33.3 °F 30.21 in SSE 4.0 mph 6.0 mph 56% 0.00 in 26 W/m2
15:42 48.0 °F 33.5 °F 30.21 in SE 3.0 mph 4.0 mph 57% 0.00 in 23 W/m2
15:48 47.6 °F 33.5 °F 30.21 in SSE 3.0 mph 4.0 mph 58% 0.00 in 19 W/m2
15:54 47.0 °F 33.0 °F 30.21 in ESE 1.0 mph 5.0 mph 58% 0.00 in 16 W/m2
16:00 46.7 °F 33.1 °F 30.21 in SSE 1.0 mph 1.0 mph 59% 0.00 in 14 W/m2
16:06 46.3 °F 33.2 °F 30.21 in SE 2.0 mph 5.0 mph 60% 0.00 in 12 W/m2
16:12 46.2 °F 33.1 °F 30.20 in SE 2.0 mph 2.0 mph 60% 0.00 in 11 W/m2
16:18 45.9 °F 33.2 °F 30.20 in SE 2.0 mph 2.0 mph 61% 0.00 in 7 W/m2
16:24 45.7 °F 33.4 °F 30.20 in East 1.0 mph 2.0 mph 62% 0.00 in 0 W/m2
16:30 45.3 °F 33.0 °F 30.20 in ESE 1.0 mph 1.0 mph 62% 0.00 in 0 W/m2
16:36 44.6 °F 33.2 °F 30.19 in Calm   1.0 mph 64% 0.00 in 0 W/m2
16:42 44.2 °F 33.2 °F 30.19 in ESE 1.0 mph 2.0 mph 65% 0.00 in 0 W/m2
16:48 44.4 °F 33.4 °F 30.19 in SE 1.0 mph 3.0 mph 65% 0.00 in 0 W/m2
16:54 45.0 °F 33.5 °F 30.19 in ESE 2.0 mph 4.0 mph 64% 0.00 in 0 W/m2
17:00 45.3 °F 33.4 °F 30.20 in ESE 2.0 mph 2.0 mph 63% 0.00 in 0 W/m2
17:06 45.4 °F 33.5 °F 30.20 in ESE 1.0 mph 3.0 mph 63% 0.00 in 0 W/m2
17:12 45.4 °F 33.5 °F 30.21 in SE 1.0 mph 4.0 mph 63% 0.00 in 0 W/m2
17:18 45.6 °F 33.3 °F 30.21 in SE 2.0 mph 4.0 mph 62% 0.00 in 0 W/m2
17:24 45.7 °F 33.4 °F 30.20 in South 2.0 mph 2.0 mph 62% 0.00 in 0 W/m2
17:30 46.0 °F 33.7 °F 30.20 in SE 3.0 mph 3.0 mph 62% 0.00 in 0 W/m2
17:36 46.2 °F 33.5 °F 30.19 in ESE 2.0 mph 5.0 mph 61% 0.00 in 0 W/m2
17:42 46.3 °F 33.6 °F 30.19 in ESE 3.0 mph 6.0 mph 61% 0.00 in 0 W/m2
17:48 46.4 °F 33.3 °F 30.19 in SSE 3.0 mph 6.0 mph 60% 0.00 in 0 W/m2
17:54 46.6 °F 33.4 °F 30.19 in SSE 4.0 mph 7.0 mph 60% 0.00 in 0 W/m2
18:00 46.7 °F 33.5 °F 30.19 in SSE 5.0 mph 5.0 mph 60% 0.00 in 0 W/m2
18:06 46.7 °F 33.5 °F 30.18 in SSE 4.0 mph 6.0 mph 60% 0.00 in 0 W/m2
18:12 46.8 °F 33.6 °F 30.18 in East 4.0 mph 4.0 mph 60% 0.00 in 0 W/m2
18:18 46.6 °F 33.4 °F 30.18 in SE 3.0 mph 7.0 mph 60% 0.00 in 0 W/m2
18:24 46.4 °F 33.3 °F 30.17 in SE 3.0 mph 7.0 mph 60% 0.00 in 0 W/m2
18:36 46.1 °F 33.4 °F 30.17 in SE 3.0 mph 3.0 mph 61% 0.00 in 0 W/m2
18:42 46.1 °F 33.4 °F 30.17 in SE 4.0 mph 5.0 mph 61% 0.00 in 0 W/m2
18:48 46.1 °F 33.4 °F 30.16 in ENE 4.0 mph 5.0 mph 61% 0.00 in 0 W/m2
18:54 46.2 °F 33.5 °F 30.17 in SE 4.0 mph 10.0 mph 61% 0.00 in 0 W/m2
19:00 46.1 °F 33.4 °F 30.17 in East 3.0 mph 3.0 mph 61% 0.00 in 0 W/m2
19:06 46.2 °F 33.1 °F 30.17 in SE 2.0 mph 3.0 mph 60% 0.00 in 0 W/m2
19:12 46.6 °F 33.0 °F 30.17 in SE 3.0 mph 4.0 mph 59% 0.00 in 0 W/m2
19:18 47.3 °F 33.3 °F 30.17 in South 4.0 mph 6.0 mph 58% 0.00 in 0 W/m2
19:24 47.6 °F 33.1 °F 30.17 in SSE 5.0 mph 7.0 mph 57% 0.00 in 0 W/m2
19:30 47.6 °F 32.7 °F 30.17 in SE 5.0 mph 9.0 mph 56% 0.00 in 0 W/m2
19:36 47.7 °F 32.8 °F 30.17 in SSE 6.0 mph 9.0 mph 56% 0.00 in 0 W/m2
19:42 47.8 °F 32.4 °F 30.16 in SSE 5.0 mph 9.0 mph 55% 0.00 in 0 W/m2
19:48 48.0 °F 32.6 °F 30.16 in SSE 7.0 mph 11.0 mph 55% 0.00 in 0 W/m2
19:54 48.1 °F 32.2 °F 30.16 in SSE 7.0 mph 9.0 mph 54% 0.00 in 0 W/m2
20:00 48.0 °F 32.1 °F 30.16 in SE 7.0 mph 7.0 mph 54% 0.00 in 0 W/m2
20:06 47.9 °F 32.0 °F 30.14 in SSE 5.0 mph 10.0 mph 54% 0.00 in 0 W/m2
20:12 47.9 °F 32.0 °F 30.15 in South 6.0 mph 6.0 mph 54% 0.00 in 0 W/m2
20:18 47.8 °F 32.4 °F 30.14 in South 5.0 mph 6.0 mph 55% 0.00 in 0 W/m2
20:24 47.8 °F 32.4 °F 30.15 in SSW 4.0 mph 5.0 mph 55% 0.00 in 0 W/m2
20:30 47.6 °F 32.2 °F 30.15 in SSE 3.0 mph 7.0 mph 55% 0.00 in 0 W/m2
20:36 47.6 °F 32.2 °F 30.14 in SSE 4.0 mph 7.0 mph 55% 0.00 in 0 W/m2
20:42 47.3 °F 32.4 °F 30.13 in South 4.0 mph 7.0 mph 56% 0.00 in 0 W/m2
20:48 47.4 °F 32.0 °F 30.14 in SE 5.0 mph 7.0 mph 55% 0.00 in 0 W/m2
20:54 47.3 °F 32.4 °F 30.14 in SSE 5.0 mph 10.0 mph 56% 0.00 in 0 W/m2
21:00 47.7 °F 31.9 °F 30.15 in SSE 7.0 mph 7.0 mph 54% 0.00 in 0 W/m2
21:06 47.6 °F 32.7 °F 30.14 in South 7.0 mph 10.0 mph 56% 0.00 in 0 W/m2
21:12 47.3 °F 32.4 °F 30.13 in South 6.0 mph 7.0 mph 56% 0.00 in 0 W/m2
21:18 47.4 °F 32.5 °F 30.13 in South 8.0 mph 10.0 mph 56% 0.00 in 0 W/m2
21:24 47.4 °F 32.5 °F 30.13 in SSE 8.0 mph 8.0 mph 56% 0.00 in 0 W/m2
21:30 47.4 °F 32.5 °F 30.13 in SSE 6.0 mph 6.0 mph 56% 0.00 in 0 W/m2
21:36 47.5 °F 32.1 °F 30.13 in SE 8.0 mph 11.0 mph 55% 0.00 in 0 W/m2
21:42 47.4 °F 32.5 °F 30.11 in SSE 7.0 mph 8.0 mph 56% 0.00 in 0 W/m2
21:48 47.3 °F 32.4 °F 30.12 in SSE 7.0 mph 8.0 mph 56% 0.00 in 0 W/m2
21:54 47.2 °F 32.3 °F 30.11 in SE 7.0 mph 14.0 mph 56% 0.00 in 0 W/m2
22:00 47.2 °F 32.3 °F 30.11 in SSE 8.0 mph 8.0 mph 56% 0.00 in 0 W/m2
22:06 47.1 °F 32.2 °F 30.10 in SSE 5.0 mph 8.0 mph 56% 0.00 in 0 W/m2
22:14 47.0 °F 32.1 °F 30.11 in SE 4.0 mph 10.0 mph 56% 0.00 in 0 W/m2
22:22 47.0 °F 32.1 °F 30.11 in SSE 4.0 mph 10.0 mph 56% 0.00 in 0 W/m2
22:28 47.0 °F 32.5 °F 30.10 in SE 4.0 mph 10.0 mph 57% 0.00 in 0 W/m2
22:34 47.2 °F 32.3 °F 30.10 in SE 6.0 mph 10.0 mph 56% 0.00 in 0 W/m2
22:40 47.2 °F 32.3 °F 30.10 in SE 8.0 mph 8.0 mph 56% 0.00 in 0 W/m2
22:46 47.2 °F 32.3 °F 30.09 in SE 5.0 mph 8.0 mph 56% 0.00 in 0 W/m2
22:52 47.1 °F 32.6 °F 30.10 in SE 3.0 mph 4.0 mph 57% 0.00 in 0 W/m2
22:58 47.1 °F 32.6 °F 30.09 in SE 3.0 mph 4.0 mph 57% 0.00 in 0 W/m2
23:04 46.9 °F 32.9 °F 30.09 in East 3.0 mph 4.0 mph 58% 0.00 in 0 W/m2
23:10 46.7 °F 32.7 °F 30.08 in ESE 3.0 mph 3.0 mph 58% 0.00 in 0 W/m2
23:14 46.7 °F 33.1 °F 30.09 in East 2.0 mph 3.0 mph 59% 0.00 in 0 W/m2
23:20 46.8 °F 33.2 °F 30.09 in East 2.0 mph 2.0 mph 59% 0.00 in 0 W/m2
23:26 46.9 °F 33.3 °F 30.08 in SE 3.0 mph 15.0 mph 59% 0.00 in 0 W/m2
23:32 46.8 °F 33.2 °F 30.08 in ESE 4.0 mph 4.0 mph 59% 0.00 in 0 W/m2
23:38 47.1 °F 33.5 °F 30.07 in SE 5.0 mph 9.0 mph 59% 0.00 in 0 W/m2
23:44 47.4 °F 33.4 °F 30.07 in South 8.0 mph 17.0 mph 58% 0.00 in 0 W/m2
23:50 47.5 °F 33.4 °F 30.06 in SSE 10.0 mph 10.0 mph 58% 0.00 in 0 W/m2
23:56 47.5 °F 33.4 °F 30.06 in SSE 10.0 mph 13.0 mph 58% 0.00 in 0 W/m2
Country Meadow, Clay, NY, USA
Compliments of Weather Underground - 2 mb